Manomet, Massachusetts
Current Conditions -  °F | °C
As of 8:52 AM on Thursday 25 Dec 2014 (Local Time) from KPYM Reporting Station
Light Rain Light Rain  
Wind Chill: 57°   Ceiling: 9000
Heat Index: 57°   Visibility: 9mi
Dew Point: 55°   Wind: 13mph
Humidity: 93%   Direction: 210°SSW
Pressure: 29.55"   Gusts: NA
Location:  41.92°N, 70.57°W
Report Text: KPYM 251352Z AUTO 21011KT 9SM -RA OVC090 14/13 A2955 RMK AO2 SLP005 P0003 T01390128
Loading
Personal Weather Stations






























Interactive Weather Map New forecast layout! Learn more

10-Day Weather Forecast

Advertisements
Track Severe Weather on mobile